This is the latest recevied weather packets stored in our database for station/object KD8OUK. If no packets are shown the sender has not sent any weather packets the latest 10 day(s).
| Time | Temp. | Humidity | Pressure | Rain* | Wind** | Luminosity | Snow |
|---|---|---|---|---|---|---|---|
| 1777811729 | 5° C | 75% | 1018.9 hPa | 179.83 mm | - | - | - |
| 1777811419 | 5° C | 75% | 1018.9 hPa | 179.83 mm | - | - | - |
| 1777811130 | 5° C | 75% | 1018.8 hPa | 179.83 mm | - | - | - |
| 1777810822 | 4.44° C | 76% | 1018.8 hPa | 179.83 mm | - | - | - |
| 1777810532 | 4.44° C | 77% | 1018.8 hPa | 179.83 mm | - | - | - |
| 1777810224 | 3.89° C | 81% | 1018.8 hPa | 179.83 mm | - | - | - |
| 1777809916 | 2.78° C | 88% | 1018.8 hPa | 179.83 mm | - | - | - |
| 1777809627 | 2.22° C | 89% | 1018.6 hPa | 179.83 mm | - | - | - |
| 1777809319 | 1.67° C | 93% | 1018.6 hPa | 0 mm | - | - | - |
| 1777809029 | 1.67° C | 92% | 1018.6 hPa | 0 mm | - | - | - |
| 1777808721 | 1.67° C | 92% | 1018.5 hPa | 0 mm | - | - | - |
| 1777808431 | 1.11° C | 96% | 1018.5 hPa | 0 mm | - | - | - |
| 1777808123 | 0.56° C | 95% | 1018.5 hPa | 0 mm | - | - | - |
| 1777807815 | 0° C | 98% | 1018.5 hPa | 0 mm | - | - | - |
| 1777807526 | 0° C | 99% | 1018.4 hPa | 0 mm | - | - | - |
| 1777807218 | -0.56° C | 99% | 1018.3 hPa | 0 mm | - | - | - |
| 1777806928 | -0.56° C | 99% | 1018.3 hPa | 0 mm | - | - | - |
| 1777806620 | -1.11° C | 99% | 1018.3 hPa | 0 mm | - | - | - |
| 1777806324 | -1.11° C | 99% | 1018.3 hPa | 0 mm | - | - | - |
| 1777806022 | -1.11° C | 99% | 1018.1 hPa | 0 mm | - | - | - |
| 1777805720 | -1.11° C | 99% | 1018.1 hPa | 0 mm | - | - | - |
| 1777805418 | -1.11° C | 99% | 1018 hPa | 0 mm | - | - | - |
| 1777805117 | -1.11° C | 99% | 1018 hPa | 0 mm | - | - | - |
| 1777804826 | -1.11° C | 99% | 1017.9 hPa | 0 mm | - | - | - |
| 1777804519 | -1.11° C | 99% | 1017.8 hPa | 0 mm | - | - | - |
* Rain latest hour (hover to see other rain measurements)
** Current wind speed in m/s (hover to see current wind gust speed)